Portada
METAR-TAF:

METAR-TAF

Aeropuertos :

Tongatapu, Tonga

Aeropuerto Internacional Fua'amotu

latitud: 21-14S, longitud: 175-09W, altitud: 38 m

Observación

El informe se hizo hace 20 minutos, a las 06:00 UTC
Viento 7 kt del este-sureste
Temperatura 24°C
Humedad 69%
Presión 1012 hPa
Visibilidad 10 km o más
Nubes dispersas a una altura de 1800 ft
Cielo nuboso a una altura de 11000 ft

METAR: NFTF 270600Z 12007KT 9999 SCT018 BKN110 24/18 Q1012

Hora: 19:20 (06:20 UTC)

Pronóstico

El informe se hizo hace 1 hora y 13 minutos, a las 05:07 UTC
Pronóstico válido del 27 a las 06 UTC al 28 a las 06 UTC
Viento 7 kt del este-sureste
Visibilidad 10 km o más
Nubes dispersas a una altura de 1800 ft
Cielo nuboso a una altura de 10000 ft

TAF: NFTF 270507Z 2706/2806 12007KT 9999 SCT018 BKN100

Observaciones y pronósticos meteorológicos de más de 4000 aeropuertos (mensajes METAR y TAF).

Los puntos amarillos y rojos representan las estaciones disponibles.

Ponga el ratón en el punto deseado para ver el nombre de la estación.

Haga clic para ver las observaciones y los pronósticos meteorológicos.

Para cambiar el mapa : haga clic en los botones verdes con una cruz de color negro para hacer un zoom, en el botón verde con un guión para alejar o en las flechas verdes para mapas adyacentes.


METAR-TAF: